Decoded Metar for KPRO (PERRY MUNI in IA, USA) (IATA:N/A) | Meteo·Mobile Aviation Weather
aviador You're here:

KPRO Decoded Metar

PERRY MUNI in IA, USA
Report Time2019-02-16 07:35:00
UTC Time2019-02-16 07:26:23
Flight Rules vfr VFR
WindCalm
Visibility9999 m
Phenomena:N/A
Clouds:N/A
Expected CloudBase > 800 ft AGL from Temp-Dew spread
CeilingNone
Temp-16°C (ISA -29)
Dew Point-18°C (85% RH)
AAT-19.5°C
QNH1022 hPa
Density Alt-2,943 ft
Elevation1,010 ft
Report Wrong Elevation
Raw Report
KPRO 160735Z AUTO 00000KT 10SM CLR M16/M18 A3017 RMK AO2
T11611176=

Extra information for KPRO:More info

Metar Taf Metar & Taf Last 4 Metars F.Rules Stats Wind Profile Meteogram Temp Stats Airport Information Weather charts Add Link Nearby VenuesMetar ALERT Operation Metar Decoded Social comments

AIRNAV info for KPRO